createdAt,value
2023-03-12T00:08:36.579Z,96084.02
2023-03-12T00:18:41.461Z,96093.27
2023-03-12T00:28:44.793Z,96102.15
2023-03-12T00:38:48.173Z,96107.93
2023-03-12T00:48:51.933Z,96118.30
2023-03-12T00:58:55.669Z,96122.97
2023-03-12T01:08:58.933Z,96132.08
2023-03-12T01:19:03.930Z,96138.52
2023-03-12T01:29:07.182Z,96143.95
2023-03-12T01:39:10.349Z,96144.33
2023-03-12T01:49:34.542Z,96144.83
2023-03-12T01:59:52.219Z,96154.20
2023-03-12T02:09:55.632Z,96160.83
2023-03-12T02:20:11.250Z,96171.59
2023-03-12T02:30:17.249Z,96197.30
2023-03-12T02:40:46.132Z,96200.81
2023-03-12T02:50:49.676Z,96211.75
2023-03-12T03:00:53.121Z,96216.30
2023-03-12T03:10:56.848Z,96225.93
2023-03-12T03:21:05.154Z,96229.27
2023-03-12T03:31:10.011Z,96237.46
2023-03-12T03:41:14.221Z,96248.36
2023-03-12T03:51:18.995Z,96266.36
2023-03-12T04:01:23.886Z,96274.98
2023-03-12T04:11:28.648Z,96284.34
2023-03-12T04:21:33.659Z,96290.14
2023-03-12T04:31:37.033Z,96297.85
2023-03-12T04:41:40.656Z,96310.27
2023-03-12T04:51:46.946Z,96320.75
2023-03-12T05:01:52.011Z,96326.43
2023-03-12T05:11:59.396Z,96326.77
2023-03-12T05:22:03.433Z,96334.84
2023-03-12T05:32:09.034Z,96348.33
2023-03-12T05:42:15.940Z,96356.38
2023-03-12T05:52:19.991Z,96365.52
2023-03-12T06:02:24.439Z,96381.67
2023-03-12T06:12:29.302Z,96390.74
2023-03-12T06:22:32.663Z,96401.09
2023-03-12T06:32:36.661Z,96411.66
2023-03-12T06:42:40.434Z,96422.58
2023-03-12T06:52:43.624Z,96435.61
2023-03-12T07:02:46.741Z,96450.71
2023-03-12T07:12:51.162Z,96463.35
2023-03-12T07:22:54.324Z,96468.89
2023-03-12T07:32:57.686Z,96467.62
2023-03-12T07:43:01.771Z,96464.71
2023-03-12T07:53:08.769Z,96461.63
2023-03-12T08:03:13.663Z,96453.91
2023-03-12T08:13:18.633Z,96451.62
2023-03-12T08:23:22.754Z,96459.16
2023-03-12T08:33:26.398Z,96463.77
2023-03-12T08:43:30.178Z,96459.61
2023-03-12T08:53:36.209Z,96459.50
2023-03-12T09:03:41.329Z,96463.41
2023-03-12T09:14:14.975Z,96457.23
2023-03-12T09:24:09.857Z,96451.66
2023-03-12T09:34:13.226Z,96458.70
2023-03-12T09:44:40.056Z,96467.06
2023-03-12T09:55:05.572Z,96472.99
2023-03-12T10:05:33.426Z,96468.17
2023-03-12T10:16:03.295Z,96457.17
2023-03-12T10:26:26.665Z,96450.33
2023-03-12T10:36:34.938Z,96446.04
2023-03-12T10:46:41.471Z,96439.85
2023-03-12T10:56:50.920Z,96439.25
2023-03-12T11:07:07.740Z,96430.41
2023-03-12T11:17:24.750Z,96434.23
2023-03-12T11:27:44.156Z,96431.33
2023-03-12T11:38:15.766Z,96435.35
2023-03-12T11:48:30.094Z,96431.02
2023-03-12T11:58:57.791Z,96430.16
2023-03-12T12:09:38.159Z,96438.13
2023-03-12T12:20:14.811Z,96444.07
2023-03-12T12:30:48.050Z,96450.71
2023-03-12T12:40:55.811Z,96449.35
2023-03-12T12:51:02.340Z,96446.05
2023-03-12T13:01:06.700Z,96452.65
2023-03-12T13:11:24.416Z,96460.84
2023-03-12T13:21:30.541Z,96465.21
2023-03-12T13:31:35.467Z,96469.56
2023-03-12T13:41:41.161Z,96470.44
2023-03-12T13:51:52.595Z,96472.52
2023-03-12T14:02:02.151Z,96469.02
2023-03-12T14:12:19.594Z,96467.98
2023-03-12T14:22:24.682Z,96460.86
2023-03-12T14:32:31.606Z,96463.13
2023-03-12T14:42:36.710Z,96465.39
2023-03-12T14:52:39.859Z,96468.88
2023-03-12T15:02:44.321Z,96466.96
2023-03-12T15:12:49.511Z,96478.27
2023-03-12T15:22:53.766Z,96492.02
2023-03-12T15:33:17.020Z,96492.19
2023-03-12T15:43:24.209Z,96505.23
2023-03-12T15:53:33.672Z,96517.70
2023-03-12T16:03:37.950Z,96513.76
2023-03-12T16:13:45.442Z,96517.80
2023-03-12T16:23:48.579Z,96523.88
2023-03-12T16:33:51.917Z,96511.68
2023-03-12T16:43:55.673Z,96526.58
2023-03-12T16:54:09.559Z,96532.84
2023-03-12T17:04:14.417Z,96561.27
2023-03-12T17:14:22.344Z,96562.52
2023-03-12T17:24:29.368Z,96561.71
2023-03-12T17:34:32.621Z,96568.28
2023-03-12T17:44:37.036Z,96576.36
2023-03-12T17:54:41.316Z,96581.27
2023-03-12T18:04:44.494Z,96555.23
2023-03-12T18:14:48.707Z,96534.87
2023-03-12T18:24:51.909Z,96536.89
2023-03-12T18:34:56.199Z,96539.44
2023-03-12T18:45:01.039Z,96548.90
2023-03-12T18:55:05.587Z,96539.30
2023-03-12T19:05:11.161Z,96536.08
2023-03-12T19:15:14.355Z,96530.07
2023-03-12T19:25:20.615Z,96554.55
2023-03-12T19:35:24.152Z,96553.58
2023-03-12T19:45:27.661Z,96564.78
2023-03-12T19:55:32.431Z,96567.39
2023-03-12T20:05:35.583Z,96545.66
2023-03-12T20:15:40.392Z,96558.80
2023-03-12T20:25:43.938Z,96545.27
2023-03-12T20:35:50.176Z,96541.45
2023-03-12T20:45:53.793Z,96545.86
2023-03-12T20:56:01.184Z,96529.06
2023-03-12T21:06:08.162Z,96519.67
2023-03-12T21:16:12.345Z,96500.74
2023-03-12T21:26:15.551Z,96471.54
2023-03-12T21:36:18.682Z,96455.30
2023-03-12T21:46:24.978Z,96435.84
2023-03-12T21:56:30.456Z,96436.86
2023-03-12T22:06:34.018Z,96439.31
2023-03-12T22:16:37.223Z,96435.25
2023-03-12T22:26:40.425Z,96432.45
2023-03-12T22:36:44.546Z,96432.69
2023-03-12T22:46:47.772Z,96426.02
2023-03-12T22:56:50.898Z,96423.27
2023-03-12T23:07:01.538Z,96422.26
2023-03-12T23:17:11.054Z,96413.12
2023-03-12T23:27:14.109Z,96425.67
2023-03-12T23:37:17.188Z,96422.95
2023-03-12T23:47:20.272Z,96411.98
2023-03-12T23:57:23.380Z,96397.76
